createdAt,value
2023-05-19T00:02:20.840Z,102156.94
2023-05-19T00:04:49.644Z,102161.03
2023-05-19T00:07:25.628Z,102164.81
2023-05-19T00:09:53.082Z,102163.13
2023-05-19T00:12:20.624Z,102162.63
2023-05-19T00:14:48.140Z,102166.22
2023-05-19T00:17:16.899Z,102162.47
2023-05-19T00:19:45.169Z,102160.66
2023-05-19T00:22:12.493Z,102169.47
2023-05-19T00:24:40.160Z,102173.66
2023-05-19T00:27:07.415Z,102163.00
2023-05-19T00:29:34.725Z,102169.09
2023-05-19T00:32:02.007Z,102171.41
2023-05-19T00:34:29.230Z,102158.88
2023-05-19T00:36:56.413Z,102158.75
2023-05-19T00:39:23.599Z,102161.59
2023-05-19T00:41:51.082Z,102158.59
2023-05-19T00:44:18.274Z,102164.03
2023-05-19T00:46:45.621Z,102158.41
2023-05-19T00:49:12.867Z,102155.00
2023-05-19T00:51:41.044Z,102157.63
2023-05-19T00:54:08.994Z,102157.38
2023-05-19T00:56:36.208Z,102151.06
2023-05-19T00:59:03.482Z,102150.91
2023-05-19T01:01:32.366Z,102158.53
2023-05-19T01:04:00.658Z,102157.16
2023-05-19T01:06:29.577Z,102157.16
2023-05-19T01:08:57.388Z,102156.16
2023-05-19T01:11:24.585Z,102161.22
2023-05-19T01:13:52.210Z,102154.06
2023-05-19T01:16:46.383Z,102157.09
2023-05-19T01:19:48.765Z,102150.25
2023-05-19T01:22:33.094Z,102148.16
2023-05-19T01:25:34.058Z,102152.81
2023-05-19T01:28:40.890Z,102145.72
2023-05-19T01:31:11.969Z,102155.72
2023-05-19T01:33:43.593Z,102156.78
2023-05-19T01:36:13.589Z,102152.09
2023-05-19T01:38:43.263Z,102148.31
2023-05-19T01:41:12.235Z,102158.84
2023-05-19T01:43:40.410Z,102142.88
2023-05-19T01:46:08.654Z,102156.00
2023-05-19T01:48:36.651Z,102149.88
2023-05-19T01:51:04.122Z,102158.84
2023-05-19T01:53:31.650Z,102164.94
2023-05-19T01:55:59.237Z,102164.88
2023-05-19T01:58:53.139Z,102168.88
2023-05-19T02:01:30.724Z,102160.03
2023-05-19T02:04:28.104Z,102153.88
2023-05-19T02:07:26.368Z,102164.09
2023-05-19T02:10:04.660Z,102159.56
2023-05-19T02:12:37.677Z,102159.34
2023-05-19T02:15:09.440Z,102154.41
2023-05-19T02:17:48.352Z,102158.06
2023-05-19T02:20:16.763Z,102164.09
2023-05-19T02:22:45.258Z,102157.25
2023-05-19T02:25:12.667Z,102153.38
2023-05-19T02:27:41.307Z,102160.09
2023-05-19T02:30:09.839Z,102167.59
2023-05-19T02:32:37.302Z,102150.28
2023-05-19T02:35:05.202Z,102156.84
2023-05-19T02:37:32.537Z,102152.78
2023-05-19T02:39:59.823Z,102155.44
2023-05-19T02:42:27.023Z,102159.41
2023-05-19T02:44:55.586Z,102146.34
2023-05-19T02:47:23.045Z,102155.66
2023-05-19T02:49:50.374Z,102160.09
2023-05-19T02:52:17.614Z,102151.50
2023-05-19T02:54:44.876Z,102150.88
2023-05-19T02:57:12.048Z,102150.44
2023-05-19T02:59:39.241Z,102142.81
2023-05-19T03:02:06.544Z,102140.19
2023-05-19T03:04:42.057Z,102146.75
2023-05-19T03:07:10.370Z,102142.31
2023-05-19T03:09:38.078Z,102141.09
2023-05-19T03:12:07.445Z,102141.09
2023-05-19T03:14:37.356Z,102141.66
2023-05-19T03:17:07.475Z,102140.81
2023-05-19T03:19:34.764Z,102140.88
2023-05-19T03:22:02.104Z,102141.13
2023-05-19T03:24:29.306Z,102150.78
2023-05-19T03:26:56.514Z,102151.56
2023-05-19T03:29:23.711Z,102137.66
2023-05-19T03:31:52.019Z,102138.59
2023-05-19T03:34:19.233Z,102145.16
2023-05-19T03:36:46.396Z,102144.78
2023-05-19T03:39:13.568Z,102148.72
2023-05-19T03:41:40.734Z,102151.75
2023-05-19T03:44:07.960Z,102142.31
2023-05-19T03:46:35.154Z,102155.25
2023-05-19T03:49:02.359Z,102143.72
2023-05-19T03:51:30.002Z,102147.09
2023-05-19T03:53:57.254Z,102155.00
2023-05-19T03:56:26.472Z,102162.59
2023-05-19T03:58:54.786Z,102150.69
2023-05-19T04:01:22.014Z,102151.66
2023-05-19T04:03:49.336Z,102157.53
2023-05-19T04:06:17.528Z,102158.81
2023-05-19T04:08:44.813Z,102161.97
2023-05-19T04:11:12.743Z,102164.06
2023-05-19T04:13:40.012Z,102161.22
2023-05-19T04:16:07.683Z,102156.88
2023-05-19T04:18:34.891Z,102157.22
2023-05-19T04:21:02.124Z,102155.56
2023-05-19T04:23:29.354Z,102165.75
2023-05-19T04:25:58.050Z,102156.28
2023-05-19T04:28:25.288Z,102155.66
2023-05-19T04:30:52.825Z,102153.50
2023-05-19T04:33:20.058Z,102163.16
2023-05-19T04:35:47.330Z,102162.84
2023-05-19T04:38:18.815Z,102163.28
2023-05-19T04:40:46.077Z,102162.69
2023-05-19T04:43:13.231Z,102166.75
2023-05-19T04:45:42.468Z,102153.03
2023-05-19T04:48:09.647Z,102149.63
2023-05-19T04:50:38.528Z,102161.88
2023-05-19T04:53:05.947Z,102155.25
2023-05-19T04:55:34.179Z,102155.19
2023-05-19T04:58:01.362Z,102150.53
2023-05-19T05:00:29.515Z,102148.09
2023-05-19T05:02:59.375Z,102155.63
2023-05-19T05:05:26.669Z,102155.84
2023-05-19T05:07:54.097Z,102160.59
2023-05-19T05:10:21.917Z,102166.28
2023-05-19T05:12:49.845Z,102169.25
2023-05-19T05:15:17.782Z,102167.50
2023-05-19T05:17:45.383Z,102167.75
2023-05-19T05:20:13.455Z,102166.94
2023-05-19T05:22:41.045Z,102161.41
2023-05-19T05:25:09.428Z,102161.63
2023-05-19T05:27:36.812Z,102162.19
2023-05-19T05:30:05.160Z,102164.72
2023-05-19T05:32:32.610Z,102167.06
2023-05-19T05:35:00.169Z,102160.78
2023-05-19T05:37:27.995Z,102157.94
2023-05-19T05:39:55.192Z,102155.66
2023-05-19T05:42:22.367Z,102163.25
2023-05-19T05:44:49.607Z,102151.66
2023-05-19T05:47:17.107Z,102151.47
2023-05-19T05:49:48.040Z,102154.84
2023-05-19T05:52:18.333Z,102151.59
2023-05-19T05:54:46.304Z,102151.59
2023-05-19T05:57:13.842Z,102159.69
2023-05-19T05:59:41.001Z,102156.81
2023-05-19T06:02:08.595Z,102146.75
2023-05-19T06:04:35.855Z,102149.88
2023-05-19T06:07:03.274Z,102142.78
2023-05-19T06:09:30.687Z,102146.59
2023-05-19T06:12:00.154Z,102140.28
2023-05-19T06:14:27.506Z,102143.59
2023-05-19T06:16:54.758Z,102143.38
2023-05-19T06:19:22.123Z,102140.94
2023-05-19T06:21:49.413Z,102149.88
2023-05-19T06:24:16.702Z,102153.34
2023-05-19T06:26:43.979Z,102148.47
2023-05-19T06:29:11.376Z,102150.22
2023-05-19T06:31:38.599Z,102149.72
2023-05-19T06:34:05.984Z,102152.25
2023-05-19T06:36:35.152Z,102156.66
2023-05-19T06:39:02.875Z,102154.97
2023-05-19T06:41:30.205Z,102152.56
2023-05-19T06:43:57.380Z,102149.75
2023-05-19T06:46:24.662Z,102152.97
2023-05-19T06:48:51.954Z,102146.56
2023-05-19T06:51:21.722Z,102147.38
2023-05-19T06:53:49.481Z,102148.00
2023-05-19T06:56:17.945Z,102149.91
2023-05-19T06:58:45.868Z,102154.63
2023-05-19T07:01:13.064Z,102149.91
2023-05-19T07:03:40.385Z,102146.91
2023-05-19T07:06:08.459Z,102146.06
2023-05-19T07:08:37.158Z,102144.28
2023-05-19T07:11:04.661Z,102140.50
2023-05-19T07:13:32.913Z,102130.19
2023-05-19T07:16:00.258Z,102131.03
2023-05-19T07:18:27.620Z,102133.09
2023-05-19T07:20:54.864Z,102135.84
2023-05-19T07:23:22.076Z,102125.50
2023-05-19T07:25:49.964Z,102130.09
2023-05-19T07:28:17.158Z,102124.13
2023-05-19T07:30:44.501Z,102131.66
2023-05-19T07:33:11.785Z,102125.34
2023-05-19T07:35:39.754Z,102123.63
2023-05-19T07:38:07.438Z,102119.47
2023-05-19T07:40:34.769Z,102108.94
2023-05-19T07:43:02.040Z,102107.66
2023-05-19T07:45:29.378Z,102106.66
2023-05-19T07:47:56.653Z,102093.28
2023-05-19T07:50:23.882Z,102095.03
2023-05-19T07:52:51.469Z,102101.91
2023-05-19T07:55:19.214Z,102087.84
2023-05-19T07:57:46.430Z,102088.63
2023-05-19T08:00:14.346Z,102087.41
2023-05-19T08:02:41.722Z,102075.44
2023-05-19T08:05:09.785Z,102068.34
2023-05-19T08:07:37.194Z,102076.63
2023-05-19T08:10:04.782Z,102066.66
2023-05-19T08:12:32.359Z,102071.59
2023-05-19T08:15:01.377Z,102067.88
2023-05-19T08:17:28.942Z,102080.16
2023-05-19T08:19:56.197Z,102065.56
2023-05-19T08:22:23.384Z,102064.91
2023-05-19T08:24:51.760Z,102064.53
2023-05-19T08:27:19.008Z,102069.34
2023-05-19T08:29:46.207Z,102071.72
2023-05-19T08:32:13.556Z,102060.97
2023-05-19T08:34:41.336Z,102062.38
2023-05-19T08:37:08.581Z,102074.09
2023-05-19T08:39:35.834Z,102076.47
2023-05-19T08:42:03.089Z,102067.53
2023-05-19T08:44:31.166Z,102046.75
2023-05-19T08:47:05.334Z,102063.91
2023-05-19T08:49:38.222Z,102062.22
2023-05-19T08:52:52.474Z,102051.41
2023-05-19T08:55:43.909Z,102053.44
2023-05-19T08:58:12.950Z,102045.69
2023-05-19T09:00:40.382Z,102050.59
2023-05-19T09:05:39.219Z,102046.31
2023-05-19T09:08:06.499Z,102030.69
2023-05-19T09:10:33.689Z,102009.31
2023-05-19T09:13:01.432Z,102025.19
2023-05-19T09:15:28.612Z,102024.78
2023-05-19T09:18:10.874Z,102012.50
2023-05-19T09:20:40.182Z,102002.00
2023-05-19T09:23:08.316Z,102013.00
2023-05-19T09:25:35.685Z,102012.19
2023-05-19T09:28:02.964Z,102012.34
2023-05-19T09:30:30.188Z,102020.44
2023-05-19T09:32:57.380Z,102018.41
2023-05-19T09:35:24.569Z,102020.31
2023-05-19T09:37:52.576Z,102030.34
2023-05-19T09:40:19.848Z,102029.22
2023-05-19T09:42:48.706Z,102024.69
2023-05-19T09:45:16.509Z,102011.91
2023-05-19T09:47:43.934Z,102017.78
2023-05-19T09:50:14.026Z,102032.31
2023-05-19T09:52:44.807Z,102021.88
2023-05-19T09:55:13.712Z,102016.56
2023-05-19T09:57:41.313Z,102014.69
2023-05-19T10:00:19.680Z,102007.31
2023-05-19T10:02:48.701Z,102007.88
2023-05-19T10:05:20.124Z,101998.13
2023-05-19T10:07:51.608Z,101994.16
2023-05-19T10:10:21.970Z,101995.38
2023-05-19T10:12:49.909Z,101991.81
2023-05-19T10:15:22.748Z,101998.88
2023-05-19T10:17:51.252Z,101998.41
2023-05-19T10:20:18.784Z,101997.78
2023-05-19T10:22:46.536Z,101988.16
2023-05-19T10:25:20.033Z,101989.91
2023-05-19T10:27:56.563Z,101987.47
2023-05-19T10:30:30.101Z,101984.19
2023-05-19T10:33:01.670Z,101981.88
2023-05-19T10:36:13.882Z,101967.88
2023-05-19T10:38:58.845Z,101975.00
2023-05-19T10:41:47.100Z,101975.84
2023-05-19T10:44:34.926Z,101981.06
2023-05-19T10:47:02.384Z,101970.50
2023-05-19T10:49:36.075Z,101962.66
2023-05-19T10:52:18.669Z,101957.81
2023-05-19T10:54:48.913Z,101955.78
2023-05-19T10:57:17.544Z,101943.81
2023-05-19T10:59:44.960Z,101956.38
2023-05-19T11:02:44.178Z,101934.63
2023-05-19T11:05:18.329Z,101937.91
2023-05-19T11:07:57.342Z,101956.41
2023-05-19T11:10:25.430Z,101954.03
2023-05-19T11:12:52.631Z,101957.72
2023-05-19T11:15:26.499Z,101953.31
2023-05-19T11:17:54.937Z,101945.25
2023-05-19T11:20:28.357Z,101948.00
2023-05-19T11:23:17.916Z,101943.66
2023-05-19T11:25:49.414Z,101938.50
2023-05-19T11:28:19.897Z,101939.41
2023-05-19T11:30:52.678Z,101938.66
2023-05-19T11:33:21.372Z,101934.22
2023-05-19T11:35:51.064Z,101934.56
2023-05-19T11:38:20.532Z,101931.25
2023-05-19T11:40:52.468Z,101937.59
2023-05-19T11:43:19.643Z,101932.66
2023-05-19T11:45:47.008Z,101923.19
2023-05-19T11:48:18.320Z,101923.75
2023-05-19T11:50:46.746Z,101921.66
2023-05-19T11:53:16.429Z,101920.50
2023-05-19T11:55:47.947Z,101934.31
2023-05-19T11:58:16.200Z,101930.78
2023-05-19T12:00:47.354Z,101941.81
2023-05-19T12:03:14.979Z,101925.50
2023-05-19T12:05:46.678Z,101926.94
2023-05-19T12:08:17.538Z,101929.81
2023-05-19T12:10:50.334Z,101940.78
2023-05-19T12:13:17.608Z,101922.22
2023-05-19T12:15:44.996Z,101920.78
2023-05-19T12:18:12.283Z,101914.81
2023-05-19T12:20:39.785Z,101913.38
2023-05-19T12:23:07.477Z,101910.22
2023-05-19T12:25:35.383Z,101906.56
2023-05-19T12:28:03.631Z,101903.69
2023-05-19T12:30:33.136Z,101896.06
2023-05-19T12:33:01.884Z,101888.50
2023-05-19T12:35:33.278Z,101898.22
2023-05-19T12:38:07.253Z,101885.41
2023-05-19T12:40:36.517Z,101886.44
2023-05-19T12:43:04.470Z,101888.16
2023-05-19T12:45:36.804Z,101887.94
2023-05-19T12:48:06.652Z,101878.28
2023-05-19T12:50:34.761Z,101885.88
2023-05-19T12:53:02.445Z,101890.72
2023-05-19T12:55:30.152Z,101883.63
2023-05-19T12:57:58.546Z,101888.31
2023-05-19T13:00:31.267Z,101881.31
2023-05-19T13:03:05.119Z,101889.50
2023-05-19T13:05:38.457Z,101881.69
2023-05-19T13:08:09.133Z,101888.28
2023-05-19T13:10:38.735Z,101877.91
2023-05-19T13:13:08.298Z,101877.91
2023-05-19T13:15:40.188Z,101879.38
2023-05-19T13:18:10.079Z,101874.06
2023-05-19T13:20:40.703Z,101871.16
2023-05-19T13:23:13.732Z,101869.91
2023-05-19T13:25:41.980Z,101865.47
2023-05-19T13:28:09.888Z,101861.16
2023-05-19T13:30:40.195Z,101878.06
2023-05-19T13:33:07.838Z,101878.28
2023-05-19T13:35:38.791Z,101878.13
2023-05-19T13:38:09.569Z,101878.31
2023-05-19T13:40:37.653Z,101872.53
2023-05-19T13:43:05.833Z,101871.09
2023-05-19T13:45:33.167Z,101861.78
2023-05-19T13:48:00.489Z,101859.69
2023-05-19T13:50:27.913Z,101855.13
2023-05-19T13:52:55.100Z,101863.69
2023-05-19T13:55:23.292Z,101862.53
2023-05-19T13:57:50.863Z,101866.44
2023-05-19T14:00:19.245Z,101864.56
2023-05-19T14:02:46.889Z,101865.81
2023-05-19T14:05:14.172Z,101857.59
2023-05-19T14:07:42.380Z,101856.06
2023-05-19T14:10:10.122Z,101864.34
2023-05-19T14:12:55.022Z,101861.63
2023-05-19T14:15:24.467Z,101862.13
2023-05-19T14:17:53.176Z,101862.03
2023-05-19T14:20:20.663Z,101861.84
2023-05-19T14:22:47.917Z,101851.97
2023-05-19T14:25:15.139Z,101853.31
2023-05-19T14:27:42.361Z,101847.56
2023-05-19T14:30:10.109Z,101838.00
2023-05-19T14:32:37.334Z,101840.28
2023-05-19T14:35:05.235Z,101832.78
2023-05-19T14:37:32.649Z,101836.19
2023-05-19T14:40:00.240Z,101833.16
2023-05-19T14:42:27.421Z,101830.78
2023-05-19T14:44:54.615Z,101826.94
2023-05-19T14:47:21.932Z,101837.72
2023-05-19T14:49:49.141Z,101827.00
2023-05-19T14:52:16.340Z,101837.44
2023-05-19T14:54:43.766Z,101842.50
2023-05-19T14:57:10.948Z,101831.88
2023-05-19T14:59:38.865Z,101831.88
2023-05-19T15:02:07.082Z,101831.06
2023-05-19T15:04:34.260Z,101835.81
2023-05-19T15:09:31.722Z,101833.34
2023-05-19T15:12:01.044Z,101827.34
2023-05-19T15:14:30.502Z,101830.66
2023-05-19T15:16:58.597Z,101828.84
2023-05-19T15:19:26.121Z,101823.59
2023-05-19T15:21:53.705Z,101818.00
2023-05-19T15:24:21.067Z,101829.16
2023-05-19T15:26:48.363Z,101826.13
2023-05-19T15:29:15.822Z,101832.94
2023-05-19T15:31:43.316Z,101829.28
2023-05-19T15:34:10.645Z,101824.41
2023-05-19T15:36:37.857Z,101824.81
2023-05-19T15:39:05.957Z,101839.38
2023-05-19T15:41:33.154Z,101822.78
2023-05-19T15:44:00.802Z,101823.59
2023-05-19T15:46:31.111Z,101830.53
2023-05-19T15:48:58.488Z,101827.84
2023-05-19T15:51:25.897Z,101815.53
2023-05-19T15:53:53.225Z,101812.66
2023-05-19T15:56:21.490Z,101818.78
2023-05-19T15:58:48.748Z,101813.63
2023-05-19T16:01:16.689Z,101807.56
2023-05-19T16:03:45.913Z,101813.28
2023-05-19T16:06:13.465Z,101818.09
2023-05-19T16:08:40.814Z,101826.44
2023-05-19T16:11:08.090Z,101831.94
2023-05-19T16:13:35.321Z,101824.56
2023-05-19T16:16:02.937Z,101822.75
2023-05-19T16:18:30.211Z,101802.91
2023-05-19T16:20:57.481Z,101818.44
2023-05-19T16:23:25.003Z,101801.84
2023-05-19T16:25:54.746Z,101808.16
2023-05-19T16:28:24.450Z,101795.31
2023-05-19T16:30:52.025Z,101801.25
2023-05-19T16:33:19.286Z,101795.81
2023-05-19T16:35:46.487Z,101799.75
2023-05-19T16:38:13.692Z,101806.66
2023-05-19T16:40:40.849Z,101796.53
2023-05-19T16:43:08.039Z,101791.91
2023-05-19T16:45:35.233Z,101784.59
2023-05-19T16:48:02.664Z,101782.78
2023-05-19T16:50:29.968Z,101792.53
2023-05-19T16:52:57.166Z,101782.72
2023-05-19T16:55:25.357Z,101781.66
2023-05-19T16:57:52.594Z,101791.72
2023-05-19T17:00:19.952Z,101792.34
2023-05-19T17:02:47.335Z,101796.56
2023-05-19T17:05:14.676Z,101802.63
2023-05-19T17:07:41.848Z,101794.97
2023-05-19T17:10:09.553Z,101788.53
2023-05-19T17:12:36.905Z,101801.16
2023-05-19T17:15:04.741Z,101801.84
2023-05-19T17:17:31.988Z,101800.03
2023-05-19T17:19:59.646Z,101800.28
2023-05-19T17:22:28.760Z,101806.56
2023-05-19T17:24:57.492Z,101805.53
2023-05-19T17:27:24.763Z,101804.56
2023-05-19T17:29:51.921Z,101811.59
2023-05-19T17:32:22.044Z,101810.94
2023-05-19T17:34:49.281Z,101806.41
2023-05-19T17:37:19.012Z,101811.31
2023-05-19T17:39:46.180Z,101818.50
2023-05-19T17:42:13.372Z,101808.56
2023-05-19T17:44:41.312Z,101815.59
2023-05-19T17:47:08.527Z,101818.28
2023-05-19T17:49:35.876Z,101816.72
2023-05-19T17:52:03.552Z,101818.56
2023-05-19T17:54:30.906Z,101825.25
2023-05-19T17:57:01.520Z,101822.75
2023-05-19T17:59:30.154Z,101821.56
2023-05-19T18:01:57.870Z,101823.69
2023-05-19T18:04:25.385Z,101827.03
2023-05-19T18:06:53.606Z,101815.09
2023-05-19T18:09:25.970Z,101812.47
2023-05-19T18:11:55.010Z,101818.34
2023-05-19T18:14:22.212Z,101818.91
2023-05-19T18:16:49.985Z,101816.19
2023-05-19T18:19:17.357Z,101815.06
2023-05-19T18:21:44.598Z,101822.56
2023-05-19T18:24:11.766Z,101817.94
2023-05-19T18:26:41.734Z,101826.63
2023-05-19T18:29:11.741Z,101822.66
2023-05-19T18:31:39.038Z,101819.81
2023-05-19T18:34:06.613Z,101826.34
2023-05-19T18:36:35.553Z,101819.84
2023-05-19T18:39:04.367Z,101820.94
2023-05-19T18:41:32.053Z,101813.56
2023-05-19T18:43:59.268Z,101826.88
2023-05-19T18:46:26.501Z,101832.91
2023-05-19T18:48:53.903Z,101837.16
2023-05-19T18:51:21.720Z,101836.31
2023-05-19T18:53:50.098Z,101839.56
2023-05-19T18:56:26.162Z,101843.69
2023-05-19T18:58:54.847Z,101843.13
2023-05-19T19:01:22.152Z,101839.69
2023-05-19T19:03:49.621Z,101837.69
2023-05-19T19:06:17.362Z,101846.63
2023-05-19T19:08:44.540Z,101846.56
2023-05-19T19:11:11.901Z,101848.00
2023-05-19T19:13:39.748Z,101844.41
2023-05-19T19:16:07.345Z,101852.16
2023-05-19T19:18:36.255Z,101855.41
2023-05-19T19:21:05.810Z,101854.53
2023-05-19T19:23:33.256Z,101858.19
2023-05-19T19:26:00.678Z,101851.63
2023-05-19T19:28:27.921Z,101852.47
2023-05-19T19:30:55.179Z,101864.66
2023-05-19T19:33:22.367Z,101857.19
2023-05-19T19:35:49.570Z,101867.56
2023-05-19T19:38:16.770Z,101866.72
2023-05-19T19:40:44.004Z,101864.00
2023-05-19T19:43:11.295Z,101870.56
2023-05-19T19:45:41.645Z,101867.94
2023-05-19T19:48:08.912Z,101872.56
2023-05-19T19:50:36.400Z,101868.63
2023-05-19T19:53:03.876Z,101873.03
2023-05-19T19:55:31.733Z,101880.66
2023-05-19T19:57:58.953Z,101874.41
2023-05-19T20:00:26.280Z,101884.16
2023-05-19T20:03:03.482Z,101878.25
2023-05-19T20:05:31.377Z,101884.34
2023-05-19T20:07:58.603Z,101882.13
2023-05-19T20:10:25.808Z,101891.91
2023-05-19T20:12:53.156Z,101899.06
2023-05-19T20:15:20.440Z,101889.19
2023-05-19T20:17:47.734Z,101886.59
2023-05-19T20:20:14.996Z,101892.97
2023-05-19T20:22:44.307Z,101897.06
2023-05-19T20:25:12.138Z,101898.38
2023-05-19T20:27:39.375Z,101904.53
2023-05-19T20:30:07.439Z,101899.44
2023-05-19T20:32:35.045Z,101900.72
2023-05-19T20:35:02.350Z,101905.69
2023-05-19T20:37:29.586Z,101906.13
2023-05-19T20:39:56.777Z,101903.91
2023-05-19T20:42:23.994Z,101916.75
2023-05-19T20:44:51.300Z,101923.91
2023-05-19T20:47:19.210Z,101919.72
2023-05-19T20:49:46.972Z,101920.56
2023-05-19T20:52:18.385Z,101921.31
2023-05-19T20:54:46.385Z,101918.81
2023-05-19T20:57:13.556Z,101921.78
2023-05-19T20:59:40.866Z,101921.28
2023-05-19T21:02:08.060Z,101933.59
2023-05-19T21:04:36.237Z,101931.13
2023-05-19T21:07:03.621Z,101939.63
2023-05-19T21:09:30.854Z,101937.97
2023-05-19T21:11:58.053Z,101932.03
2023-05-19T21:14:25.432Z,101935.56
2023-05-19T21:16:54.295Z,101930.69
2023-05-19T21:19:22.850Z,101937.72
2023-05-19T21:21:50.277Z,101929.66
2023-05-19T21:24:17.469Z,101928.19
2023-05-19T21:26:44.806Z,101940.34
2023-05-19T21:29:12.047Z,101932.41
2023-05-19T21:31:39.433Z,101939.25
2023-05-19T21:34:09.512Z,101942.22
2023-05-19T21:36:36.964Z,101933.91
2023-05-19T21:39:04.489Z,101933.81
2023-05-19T21:41:32.518Z,101939.38
2023-05-19T21:43:59.765Z,101934.53
2023-05-19T21:46:28.923Z,101936.25
2023-05-19T21:48:56.203Z,101950.78
2023-05-19T21:51:23.432Z,101943.88
2023-05-19T21:53:50.653Z,101949.28
2023-05-19T21:56:17.856Z,101947.84
2023-05-19T21:58:45.023Z,101955.09
2023-05-19T22:01:13.286Z,101946.69
2023-05-19T22:03:40.602Z,101960.06
2023-05-19T22:06:08.233Z,101959.69
2023-05-19T22:08:35.579Z,101970.84
2023-05-19T22:11:02.831Z,101975.88
2023-05-19T22:13:30.262Z,101971.81
2023-05-19T22:15:58.163Z,101971.88
2023-05-19T22:18:25.392Z,101964.31
2023-05-19T22:20:52.597Z,101965.69
2023-05-19T22:23:19.798Z,101968.31
2023-05-19T22:25:47.008Z,101968.06
2023-05-19T22:28:14.249Z,101970.28
2023-05-19T22:30:42.211Z,101972.31
2023-05-19T22:33:11.372Z,101972.13
2023-05-19T22:35:38.873Z,101970.44
2023-05-19T22:38:07.491Z,101977.44
2023-05-19T22:40:36.935Z,101975.81
2023-05-19T22:43:04.363Z,101971.75
2023-05-19T22:45:32.301Z,101970.72
2023-05-19T22:47:59.647Z,101969.63
2023-05-19T22:50:26.882Z,101970.13
2023-05-19T22:52:54.063Z,101974.38
2023-05-19T22:55:21.367Z,101976.75
2023-05-19T22:57:48.636Z,101964.78
2023-05-19T23:00:18.577Z,101977.22
2023-05-19T23:02:45.900Z,101976.56
2023-05-19T23:05:13.225Z,101974.38
2023-05-19T23:07:40.737Z,101969.47
2023-05-19T23:10:08.566Z,101980.41
2023-05-19T23:12:35.805Z,101977.53
2023-05-19T23:15:03.752Z,101981.78
2023-05-19T23:17:31.064Z,101982.81
2023-05-19T23:19:58.524Z,101977.28
2023-05-19T23:22:26.551Z,101980.91
2023-05-19T23:24:53.848Z,101977.75
2023-05-19T23:27:21.046Z,101983.66
2023-05-19T23:29:49.367Z,101993.50
2023-05-19T23:32:16.605Z,101985.03
2023-05-19T23:34:43.904Z,101983.81
2023-05-19T23:37:11.782Z,101973.13
2023-05-19T23:39:39.006Z,101985.44
2023-05-19T23:42:06.569Z,101986.28
2023-05-19T23:44:33.813Z,101981.59
2023-05-19T23:47:01.142Z,101975.91
2023-05-19T23:49:28.359Z,101984.28
2023-05-19T23:51:55.617Z,101984.72
2023-05-19T23:54:22.846Z,101982.03
2023-05-19T23:56:50.075Z,101979.31
2023-05-19T23:59:17.279Z,101980.13
